Time;durP1;ratioP1;P1;durP2;ratioP2;P2;SDS_P1;SDS_P2;PMS_P1;PMS_P2;Temp;Humidity;BMP_temperature;BMP_pressure;BME280_temperature;BME280_humidity;BME280_pressure;Samples;Min_cycle;Max_cycle;Signal;HPM_P1;HPM_P2
2021/03/02 00:09:58;;;;;;;28.48;14.43;;;;;;;3.83;77.78;101671.22;20901368;28;20041;-72
2021/03/02 00:20:12;;;;;;;28.48;13.02;;;;;;;3.52;79.40;101674.84;20902798;28;20763;-71
2021/03/02 00:30:16;;;;;;;29.35;14.10;;;;;;;3.16;81.30;101681.03;20900507;28;20041;-72
2021/03/02 00:40:17;;;;;;;28.23;12.40;;;;;;;3.33;80.72;101681.84;20902463;28;20048;-70
2021/03/02 00:50:25;;;;;;;29.67;12.77;;;;;;;3.12;81.53;101687.09;20981883;28;20094;-71
2021/03/02 01:00:26;;;;;;;28.55;12.70;;;;;;;3.06;82.51;101688.81;20997363;28;20056;-71
2021/03/02 01:10:27;;;;;;;25.73;13.02;;;;;;;3.08;82.55;101685.38;20979489;28;20053;-71
2021/03/02 01:20:46;;;;;;;26.15;12.43;;;;;;;2.91;83.81;101669.91;20996592;28;20190;-71
2021/03/02 01:30:48;;;;;;;26.77;12.95;;;;;;;2.75;83.18;101672.50;20995413;28;20079;-70
2021/03/02 01:40:49;;;;;;;27.05;12.27;;;;;;;2.45;85.68;101682.03;20994957;28;20044;-71
2021/03/02 01:51:10;;;;;;;28.17;12.27;;;;;;;2.08;86.56;101677.75;20993373;28;20048;-71
2021/03/02 02:01:11;;;;;;;33.38;12.85;;;;;;;1.85;88.55;101679.41;20992491;28;20049;-69
2021/03/02 02:11:31;;;;;;;25.67;11.93;;;;;;;1.61;90.21;101683.66;20994088;28;20503;-72
2021/03/02 02:21:55;;;;;;;26.85;12.23;;;;;;;1.41;89.39;101676.72;20991729;28;20136;-71
2021/03/02 02:31:59;;;;;;;26.75;11.70;;;;;;;1.27;91.14;101679.22;20960305;28;20489;-71
2021/03/02 02:42:02;;;;;;;28.67;12.40;;;;;;;1.17;91.48;101688.63;20972119;28;20044;-71
2021/03/02 02:52:03;;;;;;;26.92;12.02;;;;;;;1.03;91.01;101690.28;20986306;28;20048;-71
2021/03/02 03:02:09;;;;;;;26.33;12.20;;;;;;;0.98;92.75;101691.13;20987605;28;20048;-71
2021/03/02 03:12:14;;;;;;;34.20;12.80;;;;;;;0.79;92.21;101678.13;20988196;28;20048;-71
2021/03/02 03:22:19;;;;;;;26.38;12.75;;;;;;;0.70;94.16;101690.97;20987618;28;20044;-71
2021/03/02 03:32:22;;;;;;;24.83;11.73;;;;;;;0.60;94.52;101675.44;20987218;28;20646;-71
2021/03/02 03:42:23;;;;;;;26.45;12.70;;;;;;;0.59;95.13;101687.44;20995523;28;20049;-71
2021/03/02 03:52:41;;;;;;;29.20;13.00;;;;;;;0.71;96.87;101692.66;21007091;28;20044;-71
2021/03/02 04:02:42;;;;;;;26.10;12.18;;;;;;;0.59;95.28;101697.75;21006689;28;20117;-71
2021/03/02 04:12:46;;;;;;;31.40;12.75;;;;;;;0.53;94.61;101702.00;20990411;28;20094;-71
2021/03/02 04:23:02;;;;;;;25.60;12.18;;;;;;;0.47;94.65;101707.94;21001184;28;20054;-70
2021/03/02 04:33:03;;;;;;;27.95;13.18;;;;;;;0.30;96.78;101700.13;20999889;28;20040;-71
2021/03/02 04:43:07;;;;;;;27.23;12.80;;;;;;;0.17;97.53;101705.97;20996546;28;20554;-71
2021/03/02 04:53:23;;;;;;;26.10;12.60;;;;;;;0.08;97.12;101712.75;20998787;28;20044;-71
2021/03/02 05:03:25;;;;;;;23.45;11.50;;;;;;;0.05;97.55;101723.03;20997893;28;20044;-72
2021/03/02 05:13:26;;;;;;;26.65;12.55;;;;;;;-0.04;98.17;101722.09;20997450;28;20048;-71
2021/03/02 05:23:43;;;;;;;28.90;13.68;;;;;;;-0.26;97.90;101714.13;20996396;28;20052;-71
2021/03/02 05:33:44;;;;;;;24.20;12.18;;;;;;;-0.33;98.73;101725.19;20995438;28;20135;-70
2021/03/02 05:43:45;;;;;;;31.25;13.80;;;;;;;-0.36;99.38;101730.31;20994978;28;20054;-71
2021/03/02 05:54:07;;;;;;;29.83;12.90;;;;;;;-0.50;98.59;101732.69;20994473;28;20080;-71
2021/03/02 06:04:16;;;;;;;31.35;13.00;;;;;;;-0.58;99.93;101736.91;20993873;28;20582;-72
2021/03/02 06:14:24;;;;;;;26.00;12.10;;;;;;;-0.66;99.55;101759.09;20992821;28;20048;-72
2021/03/02 06:24:36;;;;;;;29.40;12.90;;;;;;;-0.66;99.96;101753.94;20992129;28;20052;-72
2021/03/02 06:34:48;;;;;;;28.25;12.75;;;;;;;-0.61;100.00;101771.13;20954928;28;20066;-73
2021/03/02 06:45:25;;;;;;;25.33;11.63;;;;;;;-0.43;99.16;101779.09;20907530;28;20231;-72
2021/03/02 06:55:27;;;;;;;28.50;12.88;;;;;;;-0.21;97.79;101787.94;20826255;28;20049;-73
2021/03/02 07:05:28;;;;;;;32.83;15.40;;;;;;;0.02;97.33;101792.47;20893942;28;20072;-73
2021/03/02 07:15:30;;;;;;;29.08;13.93;;;;;;;0.25;97.69;101809.06;20919557;28;20083;-72
2021/03/02 07:25:36;;;;;;;30.27;13.20;;;;;;;0.82;96.52;101817.31;20901397;28;20067;-72
2021/03/02 07:35:38;;;;;;;24.85;12.45;;;;;;;1.51;96.52;101825.53;20899461;28;20052;-71
2021/03/02 07:45:39;;;;;;;28.63;14.25;;;;;;;2.14;93.50;101827.50;20898816;28;20090;-71
2021/03/02 07:55:42;;;;;;;26.15;12.68;;;;;;;2.61;91.41;101826.75;20901090;28;20067;-71
2021/03/02 08:05:43;;;;;;;22.42;11.75;;;;;;;3.10;88.54;101838.81;20877380;28;20088;-71
2021/03/02 08:15:44;;;;;;;26.45;14.25;;;;;;;3.38;87.51;101842.25;20845636;28;20076;-71
2021/03/02 08:25:52;;;;;;;23.98;11.57;;;;;;;3.73;84.46;101855.13;20949190;28;20052;-72
2021/03/02 08:35:54;;;;;;;25.40;11.60;;;;;;;3.98;83.67;101854.16;20964825;28;20144;-72
2021/03/02 08:46:00;;;;;;;22.17;11.38;;;;;;;4.32;82.97;101858.31;20970543;28;20047;-72
2021/03/02 08:56:14;;;;;;;19.10;10.23;;;;;;;4.47;80.39;101857.38;20964154;28;20049;-71
2021/03/02 09:06:21;;;;;;;23.25;11.63;;;;;;;4.60;82.34;101864.22;20992650;28;20059;-72
2021/03/02 09:16:42;;;;;;;21.58;11.38;;;;;;;4.95;80.21;101870.88;20991289;28;20107;-72
2021/03/02 09:26:51;;;;;;;22.38;10.77;;;;;;;5.27;77.89;101873.22;20948003;28;20115;-72
2021/03/02 09:36:52;;;;;;;21.20;12.13;;;;;;;5.66;75.80;101880.63;20993724;28;20126;-72
2021/03/02 09:46:57;;;;;;;24.05;12.23;;;;;;;5.78;75.57;101866.66;20988912;28;20045;-71
2021/03/02 09:57:02;;;;;;;22.33;11.80;;;;;;;6.37;72.24;101884.16;20950887;28;20151;-70
